createdAt,value
2018-02-05T00:01:47.577Z,93997.57
2018-02-05T00:04:15.149Z,94006.30
2018-02-05T00:06:43.613Z,94002.95
2018-02-05T00:09:11.167Z,94003.33
2018-02-05T00:11:38.735Z,94005.34
2018-02-05T00:14:06.281Z,94017.74
2018-02-05T00:16:33.829Z,94012.00
2018-02-05T00:19:01.406Z,94021.11
2018-02-05T00:21:28.952Z,94013.20
2018-02-05T00:23:56.504Z,94022.34
2018-02-05T00:26:24.330Z,94028.12
2018-02-05T00:28:51.865Z,94020.25
2018-02-05T00:31:19.441Z,94024.39
2018-02-05T00:33:47.171Z,94031.41
2018-02-05T00:36:14.729Z,94028.13
2018-02-05T00:38:42.288Z,94028.98
2018-02-05T00:41:10.007Z,94042.20
2018-02-05T00:43:37.572Z,94039.36
2018-02-05T00:46:05.132Z,94032.35
2018-02-05T00:48:32.799Z,94045.20
2018-02-05T00:51:00.351Z,94053.52
2018-02-05T00:53:27.907Z,94051.85
2018-02-05T00:55:55.638Z,94057.66
2018-02-05T00:58:23.192Z,94067.17
2018-02-05T01:00:50.771Z,94059.73
2018-02-05T01:03:18.348Z,94070.08
2018-02-05T01:05:45.893Z,94078.34
2018-02-05T01:08:13.443Z,94075.03
2018-02-05T01:10:41.023Z,94067.62
2018-02-05T01:13:08.569Z,94068.88
2018-02-05T01:15:36.127Z,94074.66
2018-02-05T01:18:03.709Z,94073.42
2018-02-05T01:20:31.323Z,94066.39
2018-02-05T01:22:58.881Z,94065.16
2018-02-05T01:25:26.602Z,94059.39
2018-02-05T01:27:54.146Z,94056.91
2018-02-05T01:30:21.686Z,94058.52
2018-02-05T01:32:49.264Z,94063.92
2018-02-05T01:35:16.830Z,94061.45
2018-02-05T01:37:44.382Z,94062.27
2018-02-05T01:40:11.952Z,94064.75
2018-02-05T01:42:39.525Z,94058.95
2018-02-05T01:45:07.089Z,94059.80
2018-02-05T01:47:34.662Z,94060.22
2018-02-05T01:50:02.252Z,94056.94
2018-02-05T01:52:29.802Z,94055.28
2018-02-05T01:54:57.486Z,94052.36
2018-02-05T01:57:25.043Z,94054.86
2018-02-05T01:59:52.608Z,94058.16
2018-02-05T02:02:20.299Z,94067.64
2018-02-05T02:04:47.864Z,94069.28
2018-02-05T02:07:15.422Z,94068.03
2018-02-05T02:09:43.167Z,94070.13
2018-02-05T02:12:10.711Z,94069.30
2018-02-05T02:14:38.277Z,94070.94
2018-02-05T02:17:06.022Z,94063.91
2018-02-05T02:19:33.664Z,94066.39
2018-02-05T02:22:01.230Z,94064.34
2018-02-05T02:24:28.935Z,94065.15
2018-02-05T02:26:56.544Z,94069.70
2018-02-05T02:29:24.090Z,94071.35
2018-02-05T02:31:51.779Z,94072.58
2018-02-05T02:34:19.329Z,94073.02
2018-02-05T02:36:46.877Z,94082.06
2018-02-05T02:39:14.563Z,94085.80
2018-02-05T02:41:42.120Z,94091.95
2018-02-05T02:44:09.687Z,94089.89
2018-02-05T02:46:37.612Z,94091.56
2018-02-05T02:49:05.169Z,94092.80
2018-02-05T02:51:32.716Z,94094.39
2018-02-05T02:54:00.266Z,94098.93
2018-02-05T02:56:27.843Z,94097.71
2018-02-05T02:58:56.202Z,94096.88
2018-02-05T03:01:23.754Z,94101.02
2018-02-05T03:03:51.377Z,94101.80
2018-02-05T03:06:20.988Z,94097.70
2018-02-05T03:08:48.546Z,94096.84
2018-02-05T03:11:16.091Z,94109.63
2018-02-05T03:13:43.673Z,94114.58
2018-02-05T03:16:11.219Z,94112.49
2018-02-05T03:18:38.806Z,94116.23
2018-02-05T03:21:06.495Z,94112.50
2018-02-05T03:23:34.102Z,94111.63
2018-02-05T03:26:01.666Z,94120.66
2018-02-05T03:28:29.550Z,94130.53
2018-02-05T03:30:57.099Z,94132.17
2018-02-05T03:33:24.684Z,94135.86
2018-02-05T03:35:52.434Z,94139.54
2018-02-05T03:38:19.976Z,94136.69
2018-02-05T03:40:47.549Z,94143.26
2018-02-05T03:43:15.127Z,94144.58
2018-02-05T03:45:42.691Z,94146.25
2018-02-05T03:48:10.245Z,94150.39
2018-02-05T03:50:37.933Z,94151.15
2018-02-05T03:53:05.499Z,94159.30
2018-02-05T03:55:33.041Z,94158.11
2018-02-05T03:58:00.735Z,94159.78
2018-02-05T04:00:28.351Z,94163.94
2018-02-05T04:02:55.903Z,94160.63
2018-02-05T04:05:23.473Z,94163.94
2018-02-05T04:07:51.017Z,94169.27
2018-02-05T04:10:18.570Z,94171.80
2018-02-05T04:12:46.154Z,94180.45
2018-02-05T04:15:13.701Z,94180.50
2018-02-05T04:17:41.276Z,94180.80
2018-02-05T04:20:08.992Z,94181.58
2018-02-05T04:22:36.540Z,94189.81
2018-02-05T04:25:04.106Z,94194.02
2018-02-05T04:27:31.799Z,94191.94
2018-02-05T04:29:59.346Z,94192.80
2018-02-05T04:32:26.894Z,94194.45
2018-02-05T04:34:54.818Z,94201.07
2018-02-05T04:37:22.374Z,94195.67
2018-02-05T04:39:49.922Z,94192.78
2018-02-05T04:42:17.618Z,94202.29
2018-02-05T04:44:45.163Z,94202.70
2018-02-05T04:47:12.721Z,94210.11
2018-02-05T04:49:40.586Z,94207.98
2018-02-05T04:52:08.205Z,94207.99
2018-02-05T04:54:35.757Z,94212.53
2018-02-05T04:57:03.353Z,94214.13
2018-02-05T04:59:30.908Z,94216.98
2018-02-05T05:01:58.467Z,94210.39
2018-02-05T05:04:26.041Z,94213.70
2018-02-05T05:06:53.581Z,94207.53
2018-02-05T05:09:21.121Z,94210.91
2018-02-05T05:11:48.689Z,94214.48
2018-02-05T05:14:16.231Z,94214.85
2018-02-05T05:16:43.787Z,94224.32
2018-02-05T05:19:12.632Z,94223.05
2018-02-05T05:21:40.192Z,94224.30
2018-02-05T05:24:07.738Z,94224.73
2018-02-05T05:26:35.403Z,94228.08
2018-02-05T05:29:02.977Z,94228.88
2018-02-05T05:31:30.526Z,94226.39
2018-02-05T05:33:58.120Z,94228.46
2018-02-05T05:36:25.676Z,94231.35
2018-02-05T05:38:53.236Z,94237.59
2018-02-05T05:41:21.187Z,94243.34
2018-02-05T05:43:48.750Z,94249.13
2018-02-05T05:46:16.307Z,94259.47
2018-02-05T05:48:44.001Z,94261.05
2018-02-05T05:51:11.619Z,94268.91
2018-02-05T05:53:39.187Z,94267.31
2018-02-05T05:56:06.795Z,94278.45
2018-02-05T05:58:34.353Z,94276.48
2018-02-05T06:01:01.919Z,94289.72
2018-02-05T06:03:29.831Z,94293.81
2018-02-05T06:05:57.401Z,94290.92
2018-02-05T06:08:24.961Z,94305.30
2018-02-05T06:10:52.649Z,94298.74
2018-02-05T06:13:20.208Z,94300.06
2018-02-05T06:15:47.757Z,94298.73
2018-02-05T06:18:15.328Z,94296.69
2018-02-05T06:20:42.898Z,94297.98
2018-02-05T06:23:10.439Z,94298.39
2018-02-05T06:25:38.180Z,94295.52
2018-02-05T06:28:05.734Z,94293.53
2018-02-05T06:30:33.286Z,94295.98
2018-02-05T06:33:00.899Z,94291.49
2018-02-05T06:35:28.466Z,94289.97
2018-02-05T06:37:56.027Z,94292.70
2018-02-05T06:40:23.906Z,94294.36
2018-02-05T06:42:51.493Z,94289.82
2018-02-05T06:45:19.063Z,94300.52
2018-02-05T06:47:46.746Z,94302.58
2018-02-05T06:50:25.907Z,94303.50
2018-02-05T06:56:10.394Z,94307.38
2018-02-05T06:58:38.126Z,94309.81
2018-02-05T07:01:05.686Z,94314.87
2018-02-05T07:03:33.244Z,94320.34
2018-02-05T07:06:00.822Z,94317.47
2018-02-05T07:08:28.387Z,94317.91
2018-02-05T07:10:55.945Z,94319.61
2018-02-05T07:13:23.522Z,94319.61
2018-02-05T07:15:51.147Z,94322.11
2018-02-05T07:18:18.701Z,94325.39
2018-02-05T07:20:46.290Z,94328.27
2018-02-05T07:23:13.844Z,94331.14
2018-02-05T07:25:41.388Z,94327.03
2018-02-05T07:28:09.091Z,94322.90
2018-02-05T07:30:36.633Z,94330.33
2018-02-05T07:33:04.188Z,94328.69
2018-02-05T07:35:31.909Z,94323.73
2018-02-05T07:37:59.477Z,94332.00
2018-02-05T07:40:27.024Z,94327.88
2018-02-05T07:42:54.712Z,94333.69
2018-02-05T07:45:22.261Z,94329.55
2018-02-05T07:47:49.820Z,94334.52
2018-02-05T07:50:17.550Z,94336.56
2018-02-05T07:52:45.119Z,94341.52
2018-02-05T07:55:12.671Z,94334.88
2018-02-05T07:57:40.502Z,94332.83
2018-02-05T08:00:08.060Z,94332.84
2018-02-05T08:02:35.599Z,94335.28
2018-02-05T08:05:03.186Z,94324.11
2018-02-05T08:07:30.736Z,94322.89
2018-02-05T08:09:58.294Z,94331.98
2018-02-05T08:12:25.873Z,94329.91
2018-02-05T08:14:53.435Z,94331.13
2018-02-05T08:17:20.995Z,94330.67
2018-02-05T08:19:49.457Z,94336.88
2018-02-05T08:22:17.035Z,94334.80
2018-02-05T08:24:44.579Z,94334.00
2018-02-05T08:27:12.164Z,94329.87
2018-02-05T08:29:39.719Z,94329.86
2018-02-05T08:32:07.277Z,94331.52
2018-02-05T08:34:34.976Z,94329.35
2018-02-05T08:37:02.547Z,94333.81
2018-02-05T08:39:30.095Z,94331.23
2018-02-05T08:41:57.796Z,94324.17
2018-02-05T08:44:25.348Z,94325.84
2018-02-05T08:46:52.917Z,94323.77
2018-02-05T08:49:20.643Z,94310.94
2018-02-05T08:51:48.222Z,94315.08
2018-02-05T09:18:46.693Z,94321.54
2018-02-05T09:21:14.266Z,94327.30
2018-02-05T09:23:41.842Z,94316.91
2018-02-05T09:26:09.430Z,94319.35
2018-02-05T09:28:36.978Z,94317.66
2018-02-05T09:31:04.527Z,94315.57
2018-02-05T09:33:32.402Z,94312.67
2018-02-05T09:35:59.953Z,94313.03
2018-02-05T09:38:27.502Z,94309.75
2018-02-05T09:40:55.113Z,94309.75
2018-02-05T09:43:22.671Z,94302.29
2018-02-05T09:45:50.220Z,94303.88
2018-02-05T09:48:17.919Z,94304.67
2018-02-05T09:50:45.479Z,94300.87
2018-02-05T09:53:13.033Z,94294.63
2018-02-05T09:55:40.721Z,94289.15
2018-02-05T09:58:08.277Z,94295.30
2018-02-05T10:00:35.829Z,94291.11
2018-02-05T10:03:03.757Z,94291.96
2018-02-05T10:05:31.307Z,94289.49
2018-02-05T10:07:58.866Z,94282.37
2018-02-05T10:10:26.599Z,94288.58
2018-02-05T10:12:54.205Z,94280.77
2018-02-05T10:15:22.064Z,94283.20
2018-02-05T10:17:49.760Z,94273.58
2018-02-05T10:20:17.306Z,94271.07
2018-02-05T10:22:44.892Z,94262.03
2018-02-05T10:25:12.492Z,94264.01
2018-02-05T10:27:40.040Z,94264.38
2018-02-05T10:30:07.608Z,94268.92
2018-02-05T10:32:35.186Z,94255.52
2018-02-05T10:35:02.774Z,94253.48
2018-02-05T10:37:30.346Z,94248.86
2018-02-05T10:39:58.222Z,94247.98
2018-02-05T10:42:25.766Z,94245.87
2018-02-05T10:44:55.017Z,94248.78
2018-02-05T10:47:22.697Z,94242.11
2018-02-05T10:49:50.240Z,94242.97
2018-02-05T10:52:17.807Z,94239.34
2018-02-05T10:54:45.365Z,94238.42
2018-02-05T10:57:12.920Z,94238.79
2018-02-05T10:59:40.790Z,94228.73
2018-02-05T11:02:08.339Z,94224.61
2018-02-05T11:04:35.882Z,94218.75
2018-02-05T11:07:03.462Z,94218.64
2018-02-05T11:09:31.039Z,94216.55
2018-02-05T11:11:58.588Z,94215.33
2018-02-05T11:14:26.174Z,94214.39
2018-02-05T11:16:53.718Z,94213.02
2018-02-05T11:19:21.293Z,94209.64
2018-02-05T11:21:49.010Z,94204.98
2018-02-05T11:24:16.563Z,94208.25
2018-02-05T11:26:44.126Z,94202.02
2018-02-05T11:29:11.818Z,94199.97
2018-02-05T11:31:39.384Z,94200.21
2018-02-05T11:34:06.942Z,94197.72
2018-02-05T11:36:34.519Z,94203.38
2018-02-05T11:39:02.067Z,94197.44
2018-02-05T11:41:29.615Z,94197.38
2018-02-05T11:43:57.190Z,94196.48
2018-02-05T11:46:24.729Z,94199.00
2018-02-05T11:48:52.283Z,94198.66
2018-02-05T11:51:19.885Z,94191.05
2018-02-05T11:53:47.435Z,94189.73
2018-02-05T11:56:14.984Z,94194.59
2018-02-05T11:58:42.566Z,94190.31
2018-02-05T12:01:10.137Z,94184.26
2018-02-05T12:03:37.722Z,94183.36
2018-02-05T12:06:05.423Z,94188.00
2018-02-05T12:08:32.969Z,94187.37
2018-02-05T12:11:00.542Z,94183.56
2018-02-05T12:13:28.289Z,94185.75
2018-02-05T12:15:55.845Z,94193.55
2018-02-05T12:18:23.403Z,94189.98
2018-02-05T12:20:51.152Z,94185.44
2018-02-05T12:23:18.714Z,94186.48
2018-02-05T12:25:46.276Z,94178.85
2018-02-05T12:28:13.956Z,94177.95
2018-02-05T12:30:41.529Z,94171.25
2018-02-05T12:33:09.091Z,94170.91
2018-02-05T12:35:36.849Z,94166.59
2018-02-05T12:38:04.403Z,94163.94
2018-02-05T12:40:31.950Z,94163.53
2018-02-05T12:42:59.648Z,94156.56
2018-02-05T12:45:27.202Z,94157.52
2018-02-05T12:47:54.771Z,94159.15
2018-02-05T12:50:22.502Z,94160.09
2018-02-05T12:52:50.055Z,94155.11
2018-02-05T12:55:17.612Z,94154.58
2018-02-05T12:57:45.293Z,94151.23
2018-02-05T13:00:18.229Z,94149.50
2018-02-05T13:02:46.850Z,94142.32
2018-02-05T13:05:27.114Z,94144.59
2018-02-05T13:07:54.820Z,94144.67
2018-02-05T13:10:22.393Z,94142.36
2018-02-05T13:12:49.961Z,94141.52
2018-02-05T13:15:17.563Z,94137.59
2018-02-05T13:17:45.097Z,94134.83
2018-02-05T13:20:12.715Z,94127.42
2018-02-05T13:22:41.057Z,94131.66
2018-02-05T13:25:08.622Z,94129.02
2018-02-05T13:27:36.182Z,94133.48
2018-02-05T13:30:04.080Z,94130.56
2018-02-05T13:32:31.627Z,94132.94
2018-02-05T13:34:59.175Z,94130.11
2018-02-05T13:37:27.023Z,94124.96
2018-02-05T13:39:54.617Z,94124.33
2018-02-05T13:42:22.158Z,94125.76
2018-02-05T13:44:49.742Z,94125.34
2018-02-05T13:47:17.296Z,94128.25
2018-02-05T13:49:44.843Z,94121.30
2018-02-05T13:52:12.723Z,94120.77
2018-02-05T13:54:40.285Z,94118.84
2018-02-05T13:57:07.822Z,94116.52
2018-02-05T13:59:35.509Z,94118.60
2018-02-05T14:02:03.066Z,94114.48
2018-02-05T14:04:30.600Z,94118.67
2018-02-05T14:06:58.166Z,94117.36
2018-02-05T14:09:25.714Z,94112.95
2018-02-05T14:11:53.262Z,94113.24
2018-02-05T14:14:20.856Z,94112.44
2018-02-05T14:16:48.448Z,94117.84
2018-02-05T14:19:16.022Z,94116.89
2018-02-05T14:21:43.754Z,94115.44
2018-02-05T14:24:12.033Z,94117.66
2018-02-05T14:26:39.586Z,94124.39
2018-02-05T14:29:07.189Z,94117.22
2018-02-05T14:31:34.763Z,94114.64
2018-02-05T14:34:02.321Z,94123.42
2018-02-05T14:36:29.915Z,94119.39
2018-02-05T14:38:57.476Z,94125.34
2018-02-05T14:41:25.044Z,94115.14
2018-02-05T14:43:52.662Z,94121.57
2018-02-05T14:46:20.280Z,94116.34
2018-02-05T14:48:47.826Z,94123.46
2018-02-05T14:51:15.404Z,94125.98
2018-02-05T14:53:42.970Z,94124.37
2018-02-05T14:56:10.509Z,94126.46
2018-02-05T14:58:38.256Z,94129.39
2018-02-05T15:01:05.802Z,94125.30
2018-02-05T15:03:33.355Z,94126.17
2018-02-05T15:06:00.992Z,94124.56
2018-02-05T15:08:28.601Z,94126.69
2018-02-05T15:10:56.164Z,94132.97
2018-02-05T15:13:23.747Z,94131.31
2018-02-05T15:15:51.316Z,94134.25
2018-02-05T15:18:18.876Z,94138.42
2018-02-05T15:20:46.474Z,94137.66
2018-02-05T15:23:14.013Z,94139.33
2018-02-05T15:25:41.588Z,94137.69
2018-02-05T15:28:09.163Z,94136.45
2018-02-05T15:30:36.713Z,94139.74
2018-02-05T15:33:04.287Z,94138.14
2018-02-05T15:35:31.887Z,94141.05
2018-02-05T15:37:59.458Z,94142.31
2018-02-05T15:40:26.998Z,94141.92
2018-02-05T15:42:54.729Z,94139.02
2018-02-05T15:45:22.276Z,94135.31
2018-02-05T15:47:49.834Z,94134.50
2018-02-05T15:50:17.533Z,94135.71
2018-02-05T15:52:46.861Z,94134.06
2018-02-05T15:55:14.413Z,94131.20
2018-02-05T15:57:42.154Z,94131.20
2018-02-05T16:00:09.711Z,94127.47
2018-02-05T16:02:37.275Z,94123.75
2018-02-05T16:05:05.014Z,94125.85
2018-02-05T16:07:32.586Z,94125.41
2018-02-05T16:10:00.139Z,94120.49
2018-02-05T16:12:27.893Z,94124.61
2018-02-05T16:14:55.565Z,94119.23
2018-02-05T16:17:23.132Z,94126.69
2018-02-05T16:19:50.729Z,94124.21
2018-02-05T16:22:18.278Z,94124.60
2018-02-05T16:24:45.828Z,94128.31
2018-02-05T16:27:13.436Z,94125.02
2018-02-05T16:29:40.994Z,94131.63
2018-02-05T16:32:08.596Z,94130.80
2018-02-05T16:34:36.332Z,94129.99
2018-02-05T16:37:03.887Z,94127.91
2018-02-05T16:39:31.467Z,94128.73
2018-02-05T16:41:59.173Z,94128.73
2018-02-05T16:44:26.722Z,94130.00
2018-02-05T16:46:54.276Z,94126.27
2018-02-05T16:49:22.024Z,94125.83
2018-02-05T16:51:49.586Z,94127.91
2018-02-05T16:54:17.159Z,94129.16
2018-02-05T16:56:44.838Z,94121.71
2018-02-05T16:59:12.459Z,94127.08
2018-02-05T17:01:40.065Z,94130.38
2018-02-05T17:04:07.863Z,94131.19
2018-02-05T17:06:35.438Z,94132.45
2018-02-05T17:09:04.775Z,94130.78
2018-02-05T17:11:32.497Z,94132.86
2018-02-05T17:14:00.084Z,94124.19
2018-02-05T17:16:27.647Z,94132.45
2018-02-05T17:18:55.359Z,94134.09
2018-02-05T17:21:22.942Z,94132.43
2018-02-05T17:23:50.542Z,94140.28
2018-02-05T17:26:18.384Z,94136.17
2018-02-05T17:28:45.985Z,94138.65
2018-02-05T17:31:13.573Z,94138.23
2018-02-05T17:33:41.262Z,94136.15
2018-02-05T17:36:08.872Z,94129.12
2018-02-05T17:38:36.448Z,94135.73
2018-02-05T17:41:04.256Z,94135.74
2018-02-05T17:43:31.913Z,94140.70
2018-02-05T17:45:59.518Z,94136.16
2018-02-05T17:48:27.268Z,94138.62
2018-02-05T17:50:54.846Z,94137.39
2018-02-05T17:53:22.412Z,94141.48
2018-02-05T17:55:49.986Z,94139.41
2018-02-05T17:58:17.542Z,94135.31
2018-02-05T18:00:45.126Z,94141.95
2018-02-05T18:03:12.680Z,94146.08
2018-02-05T18:05:40.255Z,94144.82
2018-02-05T18:08:08.027Z,94142.33
2018-02-05T18:10:35.590Z,94150.61
2018-02-05T18:13:03.176Z,94146.09
2018-02-05T18:15:31.147Z,94151.05
2018-02-05T18:17:58.723Z,94142.78
2018-02-05T18:20:26.336Z,94145.25
2018-02-05T18:22:54.243Z,94141.52
2018-02-05T18:25:21.823Z,94146.91
2018-02-05T18:27:49.410Z,94143.19
2018-02-05T18:30:17.010Z,94148.53
2018-02-05T18:32:44.578Z,94142.34
2018-02-05T18:35:12.183Z,94144.02
2018-02-05T18:37:39.936Z,94136.16
2018-02-05T18:40:07.482Z,94137.84
2018-02-05T18:42:35.062Z,94138.22
2018-02-05T18:45:02.661Z,94145.23
2018-02-05T18:47:30.223Z,94140.72
2018-02-05T18:49:57.803Z,94137.00
2018-02-05T18:52:25.615Z,94140.30
2018-02-05T18:54:53.166Z,94141.53
2018-02-05T18:57:20.723Z,94141.53
2018-02-05T18:59:48.418Z,94141.13
2018-02-05T19:02:22.925Z,94140.30
2018-02-05T19:04:50.739Z,94141.95
2018-02-05T19:07:18.285Z,94142.35
2018-02-05T19:09:45.855Z,94139.47
2018-02-05T19:12:13.486Z,94141.95
2018-02-05T19:14:41.046Z,94139.44
2018-02-05T19:17:08.637Z,94132.43
2018-02-05T19:19:36.425Z,94136.12
2018-02-05T19:22:04.017Z,94129.55
2018-02-05T19:24:31.585Z,94129.52
2018-02-05T19:26:59.346Z,94126.23
2018-02-05T19:29:26.931Z,94132.44
2018-02-05T19:31:54.578Z,94134.41
2018-02-05T19:34:23.307Z,94131.50
2018-02-05T19:36:50.877Z,94137.23
2018-02-05T19:39:18.467Z,94140.09
2018-02-05T19:41:46.179Z,94142.66
2018-02-05T19:44:13.765Z,94149.27
2018-02-05T19:46:41.356Z,94145.58
2018-02-05T19:49:09.218Z,94150.03
2018-02-05T19:51:36.817Z,94150.44
2018-02-05T19:54:04.395Z,94149.11
2018-02-05T19:56:32.292Z,94153.24
2018-02-05T19:58:59.867Z,94150.00
2018-02-05T20:01:27.434Z,94156.16
2018-02-05T20:03:55.239Z,94162.26
2018-02-05T20:06:22.843Z,94160.98
2018-02-05T20:08:50.422Z,94157.61
2018-02-05T20:11:18.326Z,94155.08
2018-02-05T20:13:45.889Z,94155.85
2018-02-05T20:16:13.457Z,94157.05
2018-02-05T20:18:41.215Z,94154.15
2018-02-05T20:21:08.773Z,94153.30
2018-02-05T20:23:36.321Z,94152.46
2018-02-05T20:26:03.946Z,94149.72
2018-02-05T20:28:31.506Z,94148.44
2018-02-05T20:30:59.071Z,94154.09
2018-02-05T20:33:26.902Z,94155.72
2018-02-05T20:35:54.445Z,94152.39
2018-02-05T20:38:21.998Z,94149.84
2018-02-05T20:40:49.604Z,94146.37
2018-02-05T20:43:17.179Z,94152.42
2018-02-05T20:45:44.735Z,94157.71
2018-02-05T20:48:12.570Z,94160.54
2018-02-05T20:50:40.170Z,94157.61
2018-02-05T20:53:07.744Z,94162.55
2018-02-05T20:55:35.302Z,94160.50
2018-02-05T20:58:02.906Z,94160.08
2018-02-05T21:00:30.475Z,94162.16
2018-02-05T21:02:58.042Z,94165.48
2018-02-05T21:05:25.629Z,94162.30
2018-02-05T21:07:53.230Z,94156.91
2018-02-05T21:10:20.792Z,94160.64
2018-02-05T21:12:48.352Z,94158.18
2018-02-05T21:15:15.987Z,94163.94
2018-02-05T21:17:43.539Z,94158.20
2018-02-05T21:20:11.089Z,94161.09
2018-02-05T21:22:39.011Z,94160.42
2018-02-05T21:25:06.602Z,94159.98
2018-02-05T21:27:34.164Z,94167.83
2018-02-05T21:30:01.765Z,94168.17
2018-02-05T21:32:29.344Z,94164.58
2018-02-05T21:34:56.914Z,94159.55
2018-02-05T21:37:24.790Z,94164.84
2018-02-05T21:39:52.341Z,94156.73
2018-02-05T21:42:19.969Z,94157.13
2018-02-05T21:44:47.555Z,94155.37
2018-02-05T21:47:15.122Z,94158.97
2018-02-05T21:49:42.671Z,94163.00
2018-02-05T21:52:10.278Z,94166.62
2018-02-05T21:54:37.833Z,94164.08
2018-02-05T21:57:05.398Z,94171.48
2018-02-05T21:59:32.990Z,94177.61
2018-02-05T22:02:00.534Z,94192.83
2018-02-05T22:04:28.092Z,94189.12
2018-02-05T22:06:55.663Z,94187.47
2018-02-05T22:09:23.239Z,94182.07
2018-02-05T22:11:50.793Z,94184.16
2018-02-05T22:14:18.543Z,94190.35
2018-02-05T22:16:46.101Z,94195.67
2018-02-05T22:19:13.656Z,94191.95
2018-02-05T22:21:41.413Z,94196.88
2018-02-05T22:24:08.961Z,94199.34
2018-02-05T22:26:36.508Z,94203.08
2018-02-05T22:29:04.117Z,94201.08
2018-02-05T22:31:31.680Z,94200.28
2018-02-05T22:33:59.257Z,94188.10
2018-02-05T22:36:26.858Z,94189.75
2018-02-05T22:38:54.426Z,94188.84
2018-02-05T22:41:21.975Z,94187.19
2018-02-05T22:43:49.577Z,94197.45
2018-02-05T22:46:17.127Z,94188.86
2018-02-05T22:48:44.668Z,94186.52
2018-02-05T22:51:12.262Z,94188.20
2018-02-05T22:53:39.840Z,94185.28
2018-02-05T22:56:07.400Z,94186.55
2018-02-05T22:58:35.070Z,94189.00
2018-02-05T23:01:02.609Z,94191.47
2018-02-05T23:03:30.162Z,94186.27
2018-02-05T23:05:57.750Z,94188.47
2018-02-05T23:08:25.290Z,94187.55
2018-02-05T23:10:52.841Z,94186.68
2018-02-05T23:13:20.432Z,94178.41
2018-02-05T23:15:48.000Z,94181.25
2018-02-05T23:18:15.575Z,94177.62
2018-02-05T23:20:43.694Z,94170.59
2018-02-05T23:23:11.289Z,94167.73
2018-02-05T23:25:38.853Z,94168.60
2018-02-05T23:28:06.458Z,94164.06
2018-02-05T23:30:34.019Z,94161.20
2018-02-05T23:33:01.575Z,94156.28
2018-02-05T23:35:29.318Z,94167.48
2018-02-05T23:37:56.875Z,94167.98
2018-02-05T23:40:24.427Z,94163.09
2018-02-05T23:42:52.049Z,94165.09
2018-02-05T23:45:19.596Z,94160.66
2018-02-05T23:47:47.138Z,94159.81
2018-02-05T23:50:14.863Z,94156.95
2018-02-05T23:52:42.428Z,94161.08
2018-02-05T23:55:09.986Z,94157.34
2018-02-05T23:57:38.098Z,94154.45
